Terrell, TX

10:23 AM CDT on March 28, 2017 (GMT -0500)
Terrell Municipal | | Change Station

Elev 472 ft 32.71 °N, 96.27 °W | Updated 8 minutes ago

Overcast
Overcast
68 °F
Feels Like 68 °F
N
6
Wind Variable Wind from East

Today
High -- | Low -- °F
--% Chance of Precip.
Yesterday
High -- | Low -- °F
Precip. -- in
Pressure 29.92 in
Visibility 8.0 miles
Clouds Overcast 3000 ft
Dew Point 62 °F
Humidity 81%
Rainfall 0.00 in
Snow Depth Not available.
7:17 AM 7:42 PM
New Moon, 0% visible
SPECI KTRL 281515Z AUTO 08005KT 8SM OVC030 20/17 A2992 RMK AO2 T02000167
Pressure 29.92 in
Visibility 8.0 miles
Clouds Overcast 3000 ft
Dew Point 62 °F
Humidity 81%
Rainfall 0.00 in
Snow Depth Not available.
7:17 AM 7:42 PM
New Moon, 0% visible
SPECI KTRL 281515Z AUTO 08005KT 8SM OVC030 20/17 A2992 RMK AO2 T02000167

Get Severe Weather Alerts

Thanks for signing up!

Be on the lookout for a verification email in your inbox.

You'll start receiving the daily forecast at 8 AM.

×

10-Day Weather Forecast

Almanac

Astronomy

Mar. 28, 2017 Rise Set
Actual Time
Civil Twilight
Nautical Twilight
Astronomical Twilight
Moon
Length of Visible Light
Length of Day
Tomorrow will be .
, % of the Moon is Illuminated

Today's Extremes

State Highs State Lows

Community

WunderPhotos

Upload Photos

1,962,540 photos uploaded!

WunderBlog® & News

Nearby

Air Quality

  Air Quality AQ Index Pollutant
Not available.

Snow Depth

Station Depth Elevation

Earthquake Activity

City Distance Mag. Time & Date
Minimum magnitude displayed is 2.5.

Earthquake Activity

City Distance Mag. Time & Date
Minimum magnitude displayed is 2.5.

Coastal Water Temperatures

Place Temperature

Stations

Nearby Weather Stations

Station Location Temp. Windchill Dew Point Humidity Wind Precip. Elev Updated Type
                   

Watches & Warnings

There are currently no watches in effect.